createdAt,value
2023-08-12T00:01:33.642Z,99.90
2023-08-12T00:03:35.620Z,99.90
2023-08-12T00:05:38.155Z,99.90
2023-08-12T00:07:43.738Z,99.90
2023-08-12T00:09:45.448Z,99.90
2023-08-12T00:11:47.856Z,99.90
2023-08-12T00:13:49.648Z,99.90
2023-08-12T00:15:51.615Z,99.90
2023-08-12T00:17:53.922Z,99.90
2023-08-12T00:19:55.782Z,99.90
2023-08-12T00:21:57.497Z,99.90
2023-08-12T00:23:59.210Z,99.90
2023-08-12T00:26:00.974Z,99.90
2023-08-12T00:28:02.790Z,99.90
2023-08-12T00:30:05.549Z,99.90
2023-08-12T00:32:09.306Z,99.90
2023-08-12T00:34:11.017Z,99.90
2023-08-12T00:36:12.748Z,99.90
2023-08-12T00:38:14.594Z,99.90
2023-08-12T00:40:16.368Z,99.90
2023-08-12T00:42:18.193Z,99.90
2023-08-12T00:44:20.234Z,99.90
2023-08-12T00:46:22.162Z,99.90
2023-08-12T00:48:24.400Z,99.90
2023-08-12T00:50:26.826Z,99.90
2023-08-12T00:52:28.900Z,99.90
2023-08-12T00:54:30.816Z,99.90
2023-08-12T00:56:33.139Z,99.90
2023-08-12T00:58:35.043Z,99.90
2023-08-12T01:00:36.859Z,99.90
2023-08-12T01:02:39.222Z,99.90
2023-08-12T01:04:41.353Z,99.90
2023-08-12T01:06:43.099Z,99.90
2023-08-12T01:08:45.676Z,99.90
2023-08-12T01:10:57.029Z,99.90
2023-08-12T01:13:07.678Z,99.90
2023-08-12T01:15:15.742Z,99.90
2023-08-12T01:17:17.755Z,99.90
2023-08-12T01:19:35.402Z,99.90
2023-08-12T01:21:42.055Z,99.90
2023-08-12T01:23:44.899Z,99.90
2023-08-12T01:25:46.596Z,99.90
2023-08-12T01:27:48.235Z,99.90
2023-08-12T01:29:52.715Z,99.90
2023-08-12T01:32:14.874Z,99.90
2023-08-12T01:34:38.739Z,99.90
2023-08-12T01:36:43.268Z,99.90
2023-08-12T01:38:45.600Z,99.90
2023-08-12T01:40:48.821Z,99.90
2023-08-12T01:42:51.807Z,99.90
2023-08-12T01:44:56.530Z,99.90
2023-08-12T01:46:58.372Z,99.90
2023-08-12T01:49:00.059Z,99.90
2023-08-12T01:51:01.982Z,99.90
2023-08-12T01:53:03.864Z,99.90
2023-08-12T01:55:05.885Z,99.90
2023-08-12T01:57:09.541Z,99.90
2023-08-12T01:59:11.666Z,99.90
2023-08-12T02:01:13.440Z,99.90
2023-08-12T02:03:15.232Z,99.90
2023-08-12T02:05:17.007Z,99.90
2023-08-12T02:07:18.817Z,99.90
2023-08-12T02:09:20.535Z,99.90
2023-08-12T02:11:22.492Z,99.90
2023-08-12T02:13:24.209Z,99.90
2023-08-12T02:15:26.048Z,99.90
2023-08-12T02:17:27.873Z,99.90
2023-08-12T02:19:29.644Z,99.90
2023-08-12T02:21:31.386Z,99.90
2023-08-12T02:23:33.131Z,99.90
2023-08-12T02:25:34.879Z,99.90
2023-08-12T02:27:36.645Z,99.90
2023-08-12T02:29:38.375Z,99.90
2023-08-12T02:31:40.126Z,99.90
2023-08-12T02:33:41.849Z,99.90
2023-08-12T02:35:43.845Z,99.90
2023-08-12T02:37:45.554Z,99.90
2023-08-12T02:39:47.219Z,99.90
2023-08-12T02:41:49.088Z,99.90
2023-08-12T02:43:50.844Z,99.90
2023-08-12T02:45:52.850Z,99.90
2023-08-12T02:47:54.865Z,99.90
2023-08-12T02:49:56.670Z,99.90
2023-08-12T02:51:58.415Z,99.90
2023-08-12T02:54:00.140Z,99.90
2023-08-12T02:56:01.834Z,99.90
2023-08-12T02:58:04.578Z,99.90
2023-08-12T03:00:06.981Z,99.90
2023-08-12T03:02:09.011Z,99.90
2023-08-12T03:04:10.748Z,99.90
2023-08-12T03:06:12.631Z,99.90
2023-08-12T03:08:14.667Z,99.90
2023-08-12T03:10:16.583Z,99.90
2023-08-12T03:12:18.348Z,99.90
2023-08-12T03:14:20.098Z,99.90
2023-08-12T03:16:21.969Z,99.90
2023-08-12T03:18:23.812Z,99.90
2023-08-12T03:20:25.599Z,99.90
2023-08-12T03:22:28.986Z,99.90
2023-08-12T03:24:30.760Z,99.90
2023-08-12T03:26:32.559Z,99.90
2023-08-12T03:28:34.468Z,99.90
2023-08-12T03:30:36.252Z,99.90
2023-08-12T03:32:37.995Z,99.90
2023-08-12T03:34:39.858Z,99.90
2023-08-12T03:36:42.261Z,99.90
2023-08-12T03:38:44.212Z,99.90
2023-08-12T03:40:46.092Z,99.90
2023-08-12T03:42:47.915Z,99.90
2023-08-12T03:44:49.632Z,99.90
2023-08-12T03:46:51.386Z,99.90
2023-08-12T03:48:53.232Z,99.90
2023-08-12T03:50:55.007Z,99.90
2023-08-12T03:52:56.687Z,99.90
2023-08-12T03:54:58.545Z,99.90
2023-08-12T03:57:00.270Z,99.90
2023-08-12T03:59:02.085Z,99.90
2023-08-12T04:01:03.879Z,99.90
2023-08-12T04:03:05.828Z,99.90
2023-08-12T04:05:08.274Z,99.90
2023-08-12T04:07:10.116Z,99.90
2023-08-12T04:09:12.128Z,99.90
2023-08-12T04:11:13.950Z,99.90
2023-08-12T04:13:16.213Z,99.90
2023-08-12T04:15:17.940Z,99.90
2023-08-12T04:17:19.925Z,99.90
2023-08-12T04:19:21.879Z,99.90
2023-08-12T04:21:23.631Z,99.90
2023-08-12T04:23:25.558Z,99.90
2023-08-12T04:25:27.348Z,99.90
2023-08-12T04:27:29.189Z,99.90
2023-08-12T04:29:30.925Z,99.90
2023-08-12T04:31:32.620Z,99.90
2023-08-12T04:33:34.697Z,99.90
2023-08-12T04:35:36.522Z,99.90
2023-08-12T04:37:38.376Z,99.90
2023-08-12T04:39:41.322Z,99.90
2023-08-12T04:41:43.208Z,99.90
2023-08-12T04:43:44.970Z,99.90
2023-08-12T04:45:47.975Z,99.90
2023-08-12T04:47:50.033Z,99.90
2023-08-12T04:49:51.792Z,99.90
2023-08-12T04:51:56.211Z,99.90
2023-08-12T04:53:58.291Z,99.90
2023-08-12T04:56:00.176Z,99.90
2023-08-12T04:58:03.862Z,99.90
2023-08-12T05:00:09.403Z,99.90
2023-08-12T05:02:11.126Z,99.90
2023-08-12T05:04:12.850Z,99.90
2023-08-12T05:06:14.575Z,99.90
2023-08-12T05:08:16.338Z,99.90
2023-08-12T05:10:18.916Z,99.90
2023-08-12T05:12:20.705Z,99.90
2023-08-12T05:14:22.469Z,99.90
2023-08-12T05:16:24.310Z,99.90
2023-08-12T05:18:27.448Z,99.90
2023-08-12T05:20:29.356Z,99.90
2023-08-12T05:22:31.065Z,99.90
2023-08-12T05:24:32.955Z,99.90
2023-08-12T05:26:35.245Z,99.90
2023-08-12T05:28:36.964Z,99.90
2023-08-12T05:30:39.764Z,99.90
2023-08-12T05:32:42.062Z,99.90
2023-08-12T05:34:43.858Z,99.90
2023-08-12T05:36:45.675Z,99.90
2023-08-12T05:38:47.519Z,99.90
2023-08-12T05:40:49.343Z,99.90
2023-08-12T05:42:51.108Z,99.90
2023-08-12T05:44:52.755Z,99.90
2023-08-12T05:46:54.599Z,99.90
2023-08-12T05:48:56.473Z,99.90
2023-08-12T05:50:58.249Z,99.90
2023-08-12T05:53:00.051Z,99.90
2023-08-12T05:55:01.840Z,99.90
2023-08-12T05:57:04.128Z,99.90
2023-08-12T05:59:05.889Z,99.90
2023-08-12T06:01:07.847Z,99.90
2023-08-12T06:03:09.665Z,99.90
2023-08-12T06:05:11.434Z,99.90
2023-08-12T06:07:13.324Z,99.90
2023-08-12T06:09:15.038Z,99.90
2023-08-12T06:11:16.867Z,99.90
2023-08-12T06:13:18.636Z,99.90
2023-08-12T06:15:20.480Z,99.90
2023-08-12T06:17:22.461Z,99.90
2023-08-12T06:19:24.339Z,99.90
2023-08-12T06:21:26.119Z,99.90
2023-08-12T06:23:28.016Z,99.90
2023-08-12T06:25:29.771Z,99.90
2023-08-12T06:27:31.584Z,99.90
2023-08-12T06:29:33.579Z,99.90
2023-08-12T06:31:35.337Z,99.90
2023-08-12T06:33:37.275Z,99.90
2023-08-12T06:35:40.983Z,99.90
2023-08-12T06:37:42.874Z,99.90
2023-08-12T06:39:44.630Z,99.90
2023-08-12T06:41:46.335Z,99.90
2023-08-12T06:43:48.328Z,99.90
2023-08-12T06:45:50.166Z,99.90
2023-08-12T06:47:52.000Z,99.90
2023-08-12T06:49:54.108Z,99.90
2023-08-12T06:51:55.879Z,99.90
2023-08-12T06:53:57.700Z,99.90
2023-08-12T06:55:59.450Z,99.90
2023-08-12T06:58:01.804Z,99.90
2023-08-12T07:00:04.290Z,99.90
2023-08-12T07:02:07.562Z,99.90
2023-08-12T07:04:09.276Z,99.90
2023-08-12T07:06:10.992Z,99.90
2023-08-12T07:08:12.726Z,99.90
2023-08-12T07:10:14.454Z,99.90
2023-08-12T07:12:16.200Z,99.90
2023-08-12T07:14:18.145Z,99.90
2023-08-12T07:16:20.082Z,99.90
2023-08-12T07:18:22.029Z,99.90
2023-08-12T07:20:23.736Z,99.90
2023-08-12T07:22:25.454Z,99.90
2023-08-12T07:24:27.242Z,99.90
2023-08-12T07:26:29.199Z,99.90
2023-08-12T07:28:30.928Z,98.00
2023-08-12T07:30:34.784Z,99.90
2023-08-12T07:32:38.563Z,95.40
2023-08-12T07:34:40.251Z,93.30
2023-08-12T07:36:42.316Z,98.00
2023-08-12T07:38:44.062Z,94.80
2023-08-12T07:40:45.818Z,95.70
2023-08-12T07:42:47.561Z,95.50
2023-08-12T07:44:49.534Z,91.50
2023-08-12T07:46:51.236Z,93.90
2023-08-12T07:48:53.235Z,91.80
2023-08-12T07:50:58.886Z,90.40
2023-08-12T07:53:00.681Z,90.90
2023-08-12T07:55:03.024Z,90.80
2023-08-12T07:57:04.950Z,87.70
2023-08-12T07:59:07.349Z,89.30
2023-08-12T08:01:10.451Z,85.10
2023-08-12T08:03:12.172Z,77.60
2023-08-12T08:05:13.938Z,82.30
2023-08-12T08:07:16.910Z,81.70
2023-08-12T08:09:18.678Z,76.20
2023-08-12T08:11:20.381Z,74.90
2023-08-12T08:13:22.325Z,78.90
2023-08-12T08:15:23.986Z,79.50
2023-08-12T08:17:25.786Z,76.90
2023-08-12T08:19:29.991Z,75.00
2023-08-12T08:21:32.104Z,77.60
2023-08-12T08:23:34.011Z,80.80
2023-08-12T08:25:36.025Z,74.60
2023-08-12T08:27:37.860Z,74.60
2023-08-12T08:29:39.773Z,73.10
2023-08-12T08:31:41.561Z,68.10
2023-08-12T08:33:45.254Z,73.50
2023-08-12T08:35:47.309Z,73.60
2023-08-12T08:37:49.150Z,80.30
2023-08-12T08:39:51.201Z,77.90
2023-08-12T08:41:55.328Z,75.20
2023-08-12T08:44:04.383Z,76.40
2023-08-12T08:46:07.655Z,74.20
2023-08-12T08:48:11.060Z,75.50
2023-08-12T08:50:13.997Z,78.80
2023-08-12T08:52:16.777Z,80.50
2023-08-12T08:54:19.709Z,84.10
2023-08-12T08:56:22.487Z,80.60
2023-08-12T08:58:26.044Z,82.50
2023-08-12T09:00:29.111Z,82.70
2023-08-12T09:02:31.803Z,83.00
2023-08-12T09:04:34.187Z,82.90
2023-08-12T09:06:39.055Z,83.00
2023-08-12T09:08:45.775Z,75.90
2023-08-12T09:10:48.301Z,77.20
2023-08-12T09:12:50.326Z,73.30
2023-08-12T09:14:52.098Z,73.90
2023-08-12T09:16:56.337Z,76.40
2023-08-12T09:18:59.599Z,75.80
2023-08-12T09:21:02.020Z,68.60
2023-08-12T09:23:04.417Z,67.90
2023-08-12T09:25:06.823Z,67.10
2023-08-12T09:27:08.669Z,68.20
2023-08-12T09:29:10.380Z,68.00
2023-08-12T09:31:27.646Z,70.30
2023-08-12T09:33:29.521Z,70.60
2023-08-12T09:35:36.263Z,69.10
2023-08-12T09:37:38.881Z,72.00
2023-08-12T09:39:41.404Z,67.90
2023-08-12T09:41:44.316Z,66.50
2023-08-12T09:43:46.066Z,72.70
2023-08-12T09:45:48.282Z,70.30
2023-08-12T09:47:50.289Z,72.90
2023-08-12T09:49:52.168Z,70.20
2023-08-12T09:51:54.258Z,69.90
2023-08-12T09:53:56.724Z,69.20
2023-08-12T09:56:08.924Z,68.70
2023-08-12T09:58:11.888Z,71.40
2023-08-12T10:00:18.444Z,73.30
2023-08-12T10:02:21.431Z,71.40
2023-08-12T10:04:25.576Z,70.90
2023-08-12T10:06:28.191Z,73.10
2023-08-12T10:08:30.549Z,71.90
2023-08-12T10:10:36.340Z,68.20
2023-08-12T10:12:38.509Z,67.30
2023-08-12T10:14:40.703Z,62.60
2023-08-12T10:16:47.536Z,68.30
2023-08-12T10:18:51.037Z,67.90
2023-08-12T10:20:53.661Z,66.20
2023-08-12T10:22:56.494Z,69.80
2023-08-12T10:25:03.396Z,71.40
2023-08-12T10:27:06.137Z,73.30
2023-08-12T10:29:08.699Z,80.40
2023-08-12T10:31:13.255Z,85.80
2023-08-12T10:33:18.587Z,80.70
2023-08-12T10:35:20.488Z,95.00
2023-08-12T10:37:23.253Z,99.90
2023-08-12T10:39:29.852Z,99.90
2023-08-12T10:41:37.070Z,99.90
2023-08-12T10:43:55.480Z,99.90
2023-08-12T10:45:58.525Z,99.90
2023-08-12T10:48:00.642Z,99.90
2023-08-12T10:50:03.167Z,99.90
2023-08-12T10:52:05.036Z,95.70
2023-08-12T10:54:32.207Z,95.20
2023-08-12T10:57:02.736Z,97.40
2023-08-12T10:59:04.599Z,93.60
2023-08-12T11:01:14.214Z,94.20
2023-08-12T11:03:16.149Z,91.40
2023-08-12T11:05:20.198Z,92.80
2023-08-12T11:07:27.971Z,91.70
2023-08-12T11:09:29.828Z,93.20
2023-08-12T11:11:31.602Z,92.30
2023-08-12T11:13:33.299Z,93.30
2023-08-12T11:15:39.711Z,94.30
2023-08-12T11:17:42.718Z,92.70
2023-08-12T11:19:44.664Z,93.00
2023-08-12T11:21:46.965Z,92.20
2023-08-12T11:23:48.765Z,92.70
2023-08-12T11:25:51.350Z,93.10
2023-08-12T11:27:53.413Z,92.40
2023-08-12T11:29:55.231Z,91.80
2023-08-12T11:31:56.924Z,91.80
2023-08-12T11:33:59.299Z,87.70
2023-08-12T11:36:01.763Z,81.10
2023-08-12T11:38:03.668Z,77.80
2023-08-12T11:40:07.246Z,84.90
2023-08-12T11:42:09.042Z,79.40
2023-08-12T11:44:17.096Z,79.30
2023-08-12T11:46:18.886Z,76.30
2023-08-12T11:48:21.843Z,74.90
2023-08-12T11:50:28.300Z,74.10
2023-08-12T11:52:30.523Z,75.90
2023-08-12T11:54:32.467Z,77.90
2023-08-12T11:56:34.555Z,78.80
2023-08-12T11:58:51.674Z,77.60
2023-08-12T12:00:55.326Z,73.00
2023-08-12T12:02:57.953Z,72.60
2023-08-12T12:04:59.784Z,75.40
2023-08-12T12:07:07.173Z,79.80
2023-08-12T12:09:13.785Z,80.00
2023-08-12T12:11:15.623Z,80.80
2023-08-12T12:13:18.869Z,77.90
2023-08-12T12:15:20.558Z,79.70
2023-08-12T12:17:25.866Z,82.00
2023-08-12T12:19:28.487Z,81.50
2023-08-12T12:21:30.173Z,83.70
2023-08-12T12:23:32.375Z,91.40
2023-08-12T12:25:35.313Z,94.70
2023-08-12T12:27:39.688Z,97.30
2023-08-12T12:29:41.779Z,99.90
2023-08-12T12:31:43.792Z,99.90
2023-08-12T12:33:45.513Z,99.90
2023-08-12T12:35:56.620Z,99.90
2023-08-12T12:38:00.894Z,99.90
2023-08-12T12:40:04.266Z,99.90
2023-08-12T12:42:06.225Z,99.90
2023-08-12T12:44:08.029Z,99.90
2023-08-12T12:46:09.888Z,99.90
2023-08-12T12:48:11.965Z,99.90
2023-08-12T12:50:13.833Z,99.90
2023-08-12T12:52:15.772Z,99.90
2023-08-12T12:54:18.449Z,99.90
2023-08-12T12:56:20.184Z,99.90
2023-08-12T12:58:24.383Z,99.90
2023-08-12T13:00:26.109Z,99.90
2023-08-12T13:02:27.985Z,99.90
2023-08-12T13:04:29.784Z,99.90
2023-08-12T13:06:31.564Z,99.90
2023-08-12T13:08:33.572Z,99.90
2023-08-12T13:10:35.363Z,99.90
2023-08-12T13:12:37.040Z,99.90
2023-08-12T13:14:38.786Z,99.90
2023-08-12T13:16:40.561Z,99.90
2023-08-12T13:18:42.315Z,99.90
2023-08-12T13:20:44.267Z,99.90
2023-08-12T13:22:46.027Z,99.90
2023-08-12T13:24:47.688Z,99.90
2023-08-12T13:26:49.624Z,99.90
2023-08-12T13:28:51.349Z,99.90
2023-08-12T13:30:53.223Z,99.90
2023-08-12T13:32:55.655Z,99.90
2023-08-12T13:34:57.344Z,99.90
2023-08-12T13:36:59.025Z,99.90
2023-08-12T13:39:01.476Z,99.90
2023-08-12T13:41:03.271Z,99.90
2023-08-12T13:43:05.128Z,99.90
2023-08-12T13:45:07.231Z,99.90
2023-08-12T13:47:08.866Z,99.90
2023-08-12T13:49:10.627Z,99.90
2023-08-12T13:51:12.469Z,99.90
2023-08-12T13:53:14.180Z,99.90
2023-08-12T13:55:15.923Z,99.90
2023-08-12T13:57:17.637Z,99.90
2023-08-12T13:59:19.415Z,99.90
2023-08-12T14:01:21.165Z,99.90
2023-08-12T14:03:22.972Z,99.90
2023-08-12T14:05:25.233Z,99.90
2023-08-12T14:07:27.166Z,99.90
2023-08-12T14:09:29.192Z,99.90
2023-08-12T14:11:30.973Z,99.90
2023-08-12T14:13:32.765Z,99.90
2023-08-12T14:15:34.584Z,99.90
2023-08-12T14:17:36.451Z,99.90
2023-08-12T14:19:38.200Z,99.90
2023-08-12T14:21:39.870Z,99.90
2023-08-12T14:23:41.635Z,99.90
2023-08-12T14:25:43.555Z,99.90
2023-08-12T14:27:45.399Z,99.90
2023-08-12T14:29:47.670Z,99.90
2023-08-12T14:31:49.608Z,99.90
2023-08-12T14:33:51.613Z,99.90
2023-08-12T14:35:55.446Z,99.90
2023-08-12T14:37:57.225Z,99.90
2023-08-12T14:39:58.957Z,99.90
2023-08-12T14:42:00.756Z,99.90
2023-08-12T14:44:02.932Z,99.90
2023-08-12T14:46:04.833Z,99.90
2023-08-12T14:48:07.132Z,99.90
2023-08-12T14:50:09.786Z,99.90
2023-08-12T14:52:19.257Z,99.90
2023-08-12T14:54:20.972Z,99.90
2023-08-12T14:56:23.201Z,99.90
2023-08-12T14:58:24.935Z,99.90
2023-08-12T15:00:26.674Z,99.90
2023-08-12T15:02:29.416Z,99.90
2023-08-12T15:04:34.403Z,99.90
2023-08-12T15:06:36.095Z,99.90
2023-08-12T15:08:37.803Z,99.90
2023-08-12T15:10:39.566Z,99.90
2023-08-12T15:12:41.454Z,99.90
2023-08-12T15:14:43.304Z,99.90
2023-08-12T15:16:45.042Z,99.90
2023-08-12T15:18:46.781Z,99.90
2023-08-12T15:20:48.555Z,99.90
2023-08-12T15:22:50.819Z,99.90
2023-08-12T15:24:54.023Z,99.90
2023-08-12T15:26:55.960Z,99.90
2023-08-12T15:28:57.688Z,99.90
2023-08-12T15:30:59.498Z,99.90
2023-08-12T15:33:01.269Z,99.90
2023-08-12T15:35:03.278Z,99.90
2023-08-12T15:37:05.025Z,99.90
2023-08-12T15:39:06.730Z,99.90
2023-08-12T15:41:14.537Z,99.90
2023-08-12T15:43:16.233Z,99.90
2023-08-12T15:45:18.106Z,99.90
2023-08-12T15:47:19.847Z,99.90
2023-08-12T15:49:21.768Z,99.90
2023-08-12T15:51:23.566Z,99.90
2023-08-12T15:53:25.389Z,99.90
2023-08-12T15:55:27.114Z,99.90
2023-08-12T15:57:28.846Z,99.90
2023-08-12T15:59:30.726Z,99.90
2023-08-12T16:01:33.327Z,99.90
2023-08-12T16:03:35.234Z,99.90
2023-08-12T16:05:37.326Z,99.90
2023-08-12T16:07:39.105Z,99.90
2023-08-12T16:09:40.867Z,99.90
2023-08-12T16:11:42.646Z,99.90
2023-08-12T16:13:44.874Z,99.90
2023-08-12T16:15:46.766Z,99.90
2023-08-12T16:17:48.685Z,99.90
2023-08-12T16:19:50.629Z,99.90
2023-08-12T16:21:52.449Z,99.90
2023-08-12T16:23:54.134Z,99.90
2023-08-12T16:25:55.804Z,99.90
2023-08-12T16:27:57.765Z,99.90
2023-08-12T16:29:59.447Z,99.90
2023-08-12T16:32:01.214Z,99.90
2023-08-12T16:34:03.226Z,99.90
2023-08-12T16:36:05.206Z,99.90
2023-08-12T16:38:07.023Z,99.90
2023-08-12T16:40:09.972Z,99.90
2023-08-12T16:42:13.003Z,99.90
2023-08-12T16:44:14.915Z,99.90
2023-08-12T16:46:16.728Z,99.90
2023-08-12T16:48:19.347Z,99.90
2023-08-12T16:50:21.277Z,99.90
2023-08-12T16:52:22.965Z,99.90
2023-08-12T16:54:24.661Z,99.90
2023-08-12T16:56:26.395Z,99.90
2023-08-12T16:58:28.195Z,99.90
2023-08-12T17:00:29.838Z,99.90
2023-08-12T17:02:31.886Z,99.90
2023-08-12T17:04:33.628Z,99.90
2023-08-12T17:06:35.358Z,99.90
2023-08-12T17:08:37.065Z,99.90
2023-08-12T17:10:39.742Z,99.90
2023-08-12T17:12:41.650Z,99.90
2023-08-12T17:14:43.419Z,99.90
2023-08-12T17:16:45.305Z,99.90
2023-08-12T17:18:47.086Z,99.90
2023-08-12T17:20:48.888Z,99.90
2023-08-12T17:22:50.596Z,99.90
2023-08-12T17:24:52.330Z,99.90
2023-08-12T17:26:54.062Z,99.90
2023-08-12T17:28:55.896Z,99.90
2023-08-12T17:30:57.797Z,99.90
2023-08-12T17:32:59.484Z,99.90
2023-08-12T17:35:01.475Z,99.90
2023-08-12T17:37:04.008Z,99.90
2023-08-12T17:39:05.875Z,99.90
2023-08-12T17:41:07.691Z,99.90
2023-08-12T17:43:09.607Z,99.90
2023-08-12T17:45:11.516Z,99.90
2023-08-12T17:47:13.646Z,99.90
2023-08-12T17:49:15.854Z,99.90
2023-08-12T17:51:18.364Z,99.90
2023-08-12T17:53:20.314Z,99.90
2023-08-12T17:55:22.270Z,99.90
2023-08-12T17:57:23.977Z,99.90
2023-08-12T17:59:25.772Z,99.90
2023-08-12T18:01:27.880Z,99.90
2023-08-12T18:03:29.714Z,99.90
2023-08-12T18:05:31.599Z,99.90
2023-08-12T18:07:33.328Z,99.90
2023-08-12T18:09:35.100Z,99.90
2023-08-12T18:11:36.861Z,99.90
2023-08-12T18:13:38.769Z,99.90
2023-08-12T18:15:40.706Z,99.90
2023-08-12T18:17:42.488Z,99.90
2023-08-12T18:19:44.236Z,99.90
2023-08-12T18:21:45.959Z,99.90
2023-08-12T18:23:47.972Z,99.90
2023-08-12T18:25:49.813Z,99.90
2023-08-12T18:27:51.752Z,99.90
2023-08-12T18:29:53.607Z,99.90
2023-08-12T18:31:55.325Z,99.90
2023-08-12T18:33:57.053Z,99.90
2023-08-12T18:35:58.801Z,99.90
2023-08-12T18:38:00.651Z,99.90
2023-08-12T18:40:02.426Z,99.90
2023-08-12T18:42:04.324Z,99.90
2023-08-12T18:44:06.122Z,99.90
2023-08-12T18:46:07.922Z,99.90
2023-08-12T18:48:09.811Z,99.90
2023-08-12T18:50:11.712Z,99.90
2023-08-12T18:52:15.005Z,99.90
2023-08-12T18:54:16.992Z,99.90
2023-08-12T18:56:18.709Z,99.90
2023-08-12T18:58:20.396Z,99.90
2023-08-12T19:00:22.386Z,99.90
2023-08-12T19:02:24.143Z,99.90
2023-08-12T19:04:26.804Z,99.90
2023-08-12T19:06:28.508Z,99.90
2023-08-12T19:08:30.274Z,99.90
2023-08-12T19:10:32.050Z,99.90
2023-08-12T19:12:33.895Z,99.90
2023-08-12T19:14:35.634Z,99.90
2023-08-12T19:16:37.524Z,99.90
2023-08-12T19:18:39.201Z,99.90
2023-08-12T19:20:41.310Z,99.90
2023-08-12T19:22:43.115Z,99.90
2023-08-12T19:24:44.785Z,99.90
2023-08-12T19:26:46.473Z,99.90
2023-08-12T19:28:48.186Z,99.90
2023-08-12T19:30:50.787Z,99.90
2023-08-12T19:32:54.124Z,99.90
2023-08-12T19:34:55.921Z,99.90
2023-08-12T19:36:57.719Z,99.90
2023-08-12T19:38:59.539Z,99.90
2023-08-12T19:41:03.920Z,99.90
2023-08-12T19:43:05.703Z,99.90
2023-08-12T19:45:08.056Z,99.90
2023-08-12T19:47:09.765Z,99.90
2023-08-12T19:49:11.613Z,99.90
2023-08-12T19:51:13.290Z,99.90
2023-08-12T19:53:15.048Z,99.90
2023-08-12T19:55:17.163Z,99.90
2023-08-12T19:57:18.878Z,99.90
2023-08-12T19:59:20.567Z,99.90
2023-08-12T20:01:22.259Z,99.90
2023-08-12T20:03:24.443Z,99.90
2023-08-12T20:05:28.587Z,99.90
2023-08-12T20:07:30.260Z,99.90
2023-08-12T20:09:31.969Z,99.90
2023-08-12T20:11:33.804Z,99.90
2023-08-12T20:13:35.725Z,99.90
2023-08-12T20:15:37.524Z,99.90
2023-08-12T20:17:40.163Z,99.90
2023-08-12T20:19:41.971Z,99.90
2023-08-12T20:21:43.738Z,99.90
2023-08-12T20:23:45.589Z,99.90
2023-08-12T20:25:47.401Z,99.90
2023-08-12T20:27:49.089Z,99.90
2023-08-12T20:29:50.769Z,99.90
2023-08-12T20:31:52.462Z,99.90
2023-08-12T20:33:54.201Z,99.90
2023-08-12T20:35:55.960Z,99.90
2023-08-12T20:37:57.736Z,99.90
2023-08-12T20:39:59.486Z,99.90
2023-08-12T20:42:01.264Z,99.90
2023-08-12T20:44:03.638Z,99.90
2023-08-12T20:46:06.226Z,99.90
2023-08-12T20:48:09.110Z,99.90
2023-08-12T20:50:11.078Z,99.90
2023-08-12T20:52:15.180Z,99.90
2023-08-12T20:54:16.952Z,99.90
2023-08-12T20:56:18.895Z,99.90
2023-08-12T20:58:20.580Z,99.90
2023-08-12T21:00:22.367Z,99.90
2023-08-12T21:02:24.328Z,99.90
2023-08-12T21:04:26.209Z,99.90
2023-08-12T21:06:27.945Z,99.90
2023-08-12T21:08:29.777Z,99.90
2023-08-12T21:10:31.797Z,99.90
2023-08-12T21:12:33.469Z,99.90
2023-08-12T21:14:35.192Z,99.90
2023-08-12T21:16:37.102Z,99.90
2023-08-12T21:18:38.972Z,99.90
2023-08-12T21:20:41.407Z,99.90
2023-08-12T21:22:45.736Z,99.90
2023-08-12T21:24:48.408Z,99.90
2023-08-12T21:26:51.278Z,99.90
2023-08-12T21:28:53.133Z,99.90
2023-08-12T21:30:55.025Z,99.90
2023-08-12T21:32:56.943Z,99.90
2023-08-12T21:34:59.012Z,99.90
2023-08-12T21:37:00.797Z,99.90
2023-08-12T21:39:05.292Z,99.90
2023-08-12T21:41:07.119Z,99.90
2023-08-12T21:43:09.015Z,99.90
2023-08-12T21:45:11.236Z,99.90
2023-08-12T21:47:12.974Z,99.90
2023-08-12T21:49:14.648Z,99.90
2023-08-12T21:51:16.333Z,99.90
2023-08-12T21:53:18.041Z,99.90
2023-08-12T21:55:19.825Z,99.90
2023-08-12T21:57:21.541Z,99.90
2023-08-12T21:59:23.315Z,99.90
2023-08-12T22:01:25.070Z,99.90
2023-08-12T22:03:26.938Z,99.90
2023-08-12T22:05:28.718Z,99.90
2023-08-12T22:07:30.584Z,99.90
2023-08-12T22:09:35.188Z,99.90
2023-08-12T22:11:36.918Z,99.90
2023-08-12T22:13:38.642Z,99.90
2023-08-12T22:15:40.484Z,99.90
2023-08-12T22:17:43.416Z,99.90
2023-08-12T22:19:48.856Z,99.90
2023-08-12T22:21:50.654Z,99.90
2023-08-12T22:23:52.915Z,99.90
2023-08-12T22:25:54.720Z,99.90
2023-08-12T22:27:58.113Z,99.90
2023-08-12T22:29:59.844Z,99.90
2023-08-12T22:32:01.504Z,99.90
2023-08-12T22:34:05.580Z,99.90
2023-08-12T22:36:09.847Z,99.90
2023-08-12T22:38:11.879Z,99.90
2023-08-12T22:40:13.698Z,99.90
2023-08-12T22:42:15.607Z,99.90
2023-08-12T22:44:17.693Z,99.90
2023-08-12T22:46:19.443Z,99.90
2023-08-12T22:48:21.202Z,99.90
2023-08-12T22:50:22.982Z,99.90
2023-08-12T22:52:24.671Z,99.90
2023-08-12T22:54:26.471Z,99.90
2023-08-12T22:56:28.181Z,99.90
2023-08-12T22:58:29.900Z,99.90
2023-08-12T23:00:31.605Z,99.90
2023-08-12T23:02:33.497Z,99.90
2023-08-12T23:04:35.287Z,99.90
2023-08-12T23:06:36.982Z,99.90
2023-08-12T23:08:38.657Z,99.90
2023-08-12T23:10:40.484Z,99.90
2023-08-12T23:12:42.380Z,99.90
2023-08-12T23:14:44.269Z,99.90
2023-08-12T23:16:46.011Z,99.90
2023-08-12T23:18:47.667Z,99.90
2023-08-12T23:20:49.322Z,99.90
2023-08-12T23:22:51.141Z,99.90
2023-08-12T23:24:52.969Z,99.90
2023-08-12T23:26:54.724Z,99.90
2023-08-12T23:28:56.446Z,99.90
2023-08-12T23:30:58.164Z,99.90
2023-08-12T23:32:59.955Z,99.90
2023-08-12T23:35:01.877Z,99.90
2023-08-12T23:37:03.706Z,99.90
2023-08-12T23:39:05.729Z,99.90
2023-08-12T23:41:07.475Z,99.90
2023-08-12T23:43:09.490Z,99.90
2023-08-12T23:45:11.955Z,99.90
2023-08-12T23:47:13.677Z,99.90
2023-08-12T23:49:15.541Z,99.90
2023-08-12T23:51:17.236Z,99.90
2023-08-12T23:53:18.960Z,99.90
2023-08-12T23:55:20.796Z,99.90
2023-08-12T23:57:22.501Z,99.90
2023-08-12T23:59:24.224Z,99.90
